createdAt,value
2023-05-05T00:01:42.143Z,17.90
2023-05-05T00:04:10.710Z,16.50
2023-05-05T00:06:39.677Z,19.40
2023-05-05T00:09:08.556Z,18.50
2023-05-05T00:11:37.762Z,16.80
2023-05-05T00:14:07.053Z,18.90
2023-05-05T00:16:35.766Z,18.10
2023-05-05T00:19:04.633Z,18.00
2023-05-05T00:21:33.532Z,16.90
2023-05-05T00:24:03.585Z,18.10
2023-05-05T00:26:32.334Z,16.60
2023-05-05T00:29:01.533Z,18.10
2023-05-05T00:31:30.664Z,19.80
2023-05-05T00:33:59.410Z,15.10
2023-05-05T00:36:28.917Z,17.60
2023-05-05T00:38:57.486Z,17.30
2023-05-05T00:41:26.499Z,16.50
2023-05-05T00:43:55.799Z,16.30
2023-05-05T00:46:27.450Z,16.70
2023-05-05T00:48:57.214Z,17.10
2023-05-05T00:51:26.979Z,18.80
2023-05-05T00:53:55.761Z,19.60
2023-05-05T00:56:27.742Z,18.30
2023-05-05T00:58:56.833Z,20.10
2023-05-05T01:01:26.237Z,21.10
2023-05-05T01:03:56.061Z,19.00
2023-05-05T01:07:02.603Z,20.50
2023-05-05T01:09:56.153Z,18.40
2023-05-05T01:12:39.022Z,19.10
2023-05-05T01:15:31.113Z,19.30
2023-05-05T01:18:08.717Z,21.30
2023-05-05T01:21:06.577Z,19.50
2023-05-05T01:24:00.267Z,19.80
2023-05-05T01:26:47.677Z,17.90
2023-05-05T01:29:52.018Z,15.60
2023-05-05T01:32:27.672Z,20.50
2023-05-05T01:35:02.852Z,20.10
2023-05-05T01:38:13.882Z,17.00
2023-05-05T01:41:05.810Z,18.10
2023-05-05T01:43:36.036Z,18.30
2023-05-05T01:46:06.536Z,18.30
2023-05-05T01:48:35.654Z,18.30
2023-05-05T01:51:06.123Z,17.00
2023-05-05T01:53:36.065Z,18.60
2023-05-05T01:56:05.590Z,17.50
2023-05-05T01:58:35.289Z,18.20
2023-05-05T02:01:04.532Z,19.80
2023-05-05T02:03:34.357Z,18.10
2023-05-05T02:06:03.450Z,18.10
2023-05-05T02:08:32.701Z,18.90
2023-05-05T02:11:01.579Z,19.40
2023-05-05T02:13:32.921Z,18.20
2023-05-05T02:16:02.089Z,17.80
2023-05-05T02:18:36.457Z,18.80
2023-05-05T02:21:05.749Z,18.20
2023-05-05T02:23:34.566Z,17.60
2023-05-05T02:26:08.150Z,19.70
2023-05-05T02:28:49.837Z,18.90
2023-05-05T02:31:21.798Z,17.30
2023-05-05T02:33:51.524Z,21.20
2023-05-05T02:36:23.317Z,16.70
2023-05-05T02:39:03.769Z,18.40
2023-05-05T02:41:36.925Z,14.70
2023-05-05T02:44:11.144Z,16.50
2023-05-05T02:46:40.671Z,18.30
2023-05-05T02:49:09.529Z,16.80
2023-05-05T02:51:39.150Z,15.80
2023-05-05T02:54:10.501Z,16.40
2023-05-05T02:56:49.462Z,17.60
2023-05-05T02:59:39.611Z,17.30
2023-05-05T03:02:29.307Z,16.30
2023-05-05T03:05:03.618Z,17.80
2023-05-05T03:07:39.615Z,17.50
2023-05-05T03:10:14.539Z,16.00
2023-05-05T03:13:07.616Z,17.70
2023-05-05T03:15:51.987Z,15.00
2023-05-05T03:18:23.934Z,17.70
2023-05-05T03:20:58.453Z,15.90
2023-05-05T03:23:27.579Z,15.70
2023-05-05T03:25:59.116Z,18.30
2023-05-05T03:28:31.644Z,19.00
2023-05-05T03:31:03.779Z,20.80
2023-05-05T03:33:33.005Z,17.90
2023-05-05T03:36:02.497Z,17.70
2023-05-05T03:38:31.490Z,21.30
2023-05-05T03:41:04.036Z,18.60
2023-05-05T03:43:33.044Z,16.80
2023-05-05T03:46:02.459Z,14.10
2023-05-05T03:48:32.157Z,16.30
2023-05-05T03:51:01.242Z,15.50
2023-05-05T03:53:31.052Z,17.40
2023-05-05T03:56:01.794Z,16.10
2023-05-05T03:58:30.364Z,18.10
2023-05-05T04:00:59.058Z,17.00
2023-05-05T04:03:27.876Z,16.20
2023-05-05T04:05:57.158Z,15.80
2023-05-05T04:08:26.335Z,15.60
2023-05-05T04:10:55.145Z,16.70
2023-05-05T04:13:24.642Z,15.90
2023-05-05T04:15:53.455Z,17.20
2023-05-05T04:18:22.520Z,16.00
2023-05-05T04:20:51.920Z,18.40
2023-05-05T04:23:21.144Z,17.50
2023-05-05T04:25:50.423Z,17.10
2023-05-05T04:28:21.826Z,18.10
2023-05-05T04:30:50.956Z,18.70
2023-05-05T04:33:20.685Z,20.40
2023-05-05T04:35:50.699Z,13.90
2023-05-05T04:38:21.254Z,16.20
2023-05-05T04:40:50.325Z,15.50
2023-05-05T04:43:20.440Z,14.60
2023-05-05T04:45:56.130Z,14.60
2023-05-05T04:48:27.730Z,16.50
2023-05-05T04:50:56.307Z,18.10
2023-05-05T04:53:25.424Z,17.50
2023-05-05T04:55:55.246Z,14.80
2023-05-05T04:58:24.105Z,16.20
2023-05-05T05:00:52.924Z,16.30
2023-05-05T05:03:21.824Z,17.90
2023-05-05T05:05:51.099Z,18.70
2023-05-05T05:08:19.905Z,18.80
2023-05-05T05:10:48.682Z,17.30
2023-05-05T05:13:17.834Z,17.40
2023-05-05T05:15:46.757Z,18.20
2023-05-05T05:18:15.759Z,17.80
2023-05-05T05:20:44.634Z,16.70
2023-05-05T05:23:13.441Z,17.00
2023-05-05T05:25:44.382Z,17.00
2023-05-05T05:28:13.654Z,16.20
2023-05-05T05:30:47.176Z,17.20
2023-05-05T05:33:16.905Z,16.10
2023-05-05T05:35:46.894Z,21.20
2023-05-05T05:38:16.222Z,18.30
2023-05-05T05:40:45.200Z,16.40
2023-05-05T05:43:14.700Z,16.60
2023-05-05T05:45:43.817Z,15.30
2023-05-05T05:48:12.462Z,16.10
2023-05-05T05:50:41.381Z,20.20
2023-05-05T05:53:11.178Z,17.10
2023-05-05T05:55:40.414Z,19.40
2023-05-05T05:58:09.355Z,17.70
2023-05-05T06:00:38.248Z,19.80
2023-05-05T06:03:08.478Z,17.70
2023-05-05T06:05:39.297Z,19.10
2023-05-05T06:08:08.717Z,16.30
2023-05-05T06:10:42.097Z,18.30
2023-05-05T06:13:14.290Z,15.90
2023-05-05T06:15:45.635Z,14.50
2023-05-05T06:18:15.007Z,18.30
2023-05-05T06:20:43.996Z,16.80
2023-05-05T06:23:13.616Z,16.20
2023-05-05T06:25:46.432Z,15.80
2023-05-05T06:28:15.386Z,17.70
2023-05-05T06:30:43.962Z,19.10
2023-05-05T06:33:12.964Z,17.70
2023-05-05T06:35:41.971Z,13.50
2023-05-05T06:38:10.905Z,15.70
2023-05-05T06:40:39.532Z,15.90
2023-05-05T06:43:09.146Z,14.00
2023-05-05T06:45:43.891Z,15.70
2023-05-05T06:48:13.894Z,13.20
2023-05-05T06:50:43.116Z,14.60
2023-05-05T06:53:12.193Z,19.10
2023-05-05T06:55:44.553Z,16.20
2023-05-05T06:58:13.554Z,16.10
2023-05-05T07:00:42.676Z,18.00
2023-05-05T07:03:11.388Z,15.40
2023-05-05T07:05:40.320Z,14.90
2023-05-05T07:08:09.634Z,14.90
2023-05-05T07:10:39.712Z,14.40
2023-05-05T07:13:08.909Z,15.20
2023-05-05T07:15:38.262Z,15.50
2023-05-05T07:18:07.331Z,14.30
2023-05-05T07:20:36.334Z,13.80
2023-05-05T07:23:05.644Z,15.50
2023-05-05T07:25:36.014Z,14.20
2023-05-05T07:28:04.854Z,13.90
2023-05-05T07:30:34.682Z,14.20
2023-05-05T07:33:04.276Z,13.60
2023-05-05T07:35:33.401Z,15.80
2023-05-05T07:38:02.141Z,13.60
2023-05-05T07:40:30.864Z,13.30
2023-05-05T07:43:00.136Z,13.70
2023-05-05T07:45:31.984Z,16.20
2023-05-05T07:48:00.759Z,12.60
2023-05-05T07:50:29.600Z,14.30
2023-05-05T07:53:10.889Z,12.70
2023-05-05T07:55:43.552Z,12.20
2023-05-05T07:58:12.545Z,14.20
2023-05-05T08:00:41.309Z,17.80
2023-05-05T08:03:12.004Z,11.60
2023-05-05T08:05:41.038Z,13.80
2023-05-05T08:08:10.231Z,15.10
2023-05-05T08:10:40.038Z,13.20
2023-05-05T08:13:09.584Z,13.10
2023-05-05T08:15:38.366Z,14.60
2023-05-05T08:18:07.382Z,12.40
2023-05-05T08:20:37.060Z,14.30
2023-05-05T08:23:05.605Z,17.10
2023-05-05T08:25:34.456Z,13.40
2023-05-05T08:28:03.341Z,14.10
2023-05-05T08:30:32.398Z,14.70
2023-05-05T08:33:01.047Z,14.30
2023-05-05T08:35:29.967Z,13.60
2023-05-05T08:37:59.242Z,12.90
2023-05-05T08:40:34.404Z,13.40
2023-05-05T08:43:03.851Z,11.70
2023-05-05T08:45:33.153Z,11.10
2023-05-05T08:48:05.422Z,13.00
2023-05-05T08:50:37.142Z,15.60
2023-05-05T08:53:11.032Z,13.20
2023-05-05T08:56:02.084Z,12.60
2023-05-05T08:58:38.907Z,14.30
2023-05-05T09:01:11.743Z,14.70
2023-05-05T09:03:42.289Z,12.10
2023-05-05T09:06:11.489Z,12.30
2023-05-05T09:08:40.429Z,11.70
2023-05-05T09:11:09.207Z,12.00
2023-05-05T09:16:24.005Z,11.40
2023-05-05T09:19:02.481Z,10.10
2023-05-05T09:21:31.397Z,12.60
2023-05-05T09:24:11.544Z,12.10
2023-05-05T09:26:43.911Z,9.30
2023-05-05T09:29:23.200Z,10.20
2023-05-05T09:32:12.947Z,9.50
2023-05-05T09:34:41.939Z,10.30
2023-05-05T09:37:10.613Z,11.90
2023-05-05T09:39:54.596Z,11.70
2023-05-05T09:42:23.704Z,13.90
2023-05-05T09:44:52.455Z,8.40
2023-05-05T09:47:29.047Z,9.70
2023-05-05T09:49:59.277Z,9.00
2023-05-05T09:52:31.254Z,11.00
2023-05-05T09:55:00.678Z,9.00
2023-05-05T09:57:35.728Z,7.80
2023-05-05T10:00:07.314Z,8.30
2023-05-05T10:02:39.029Z,9.50
2023-05-05T10:05:11.958Z,9.20
2023-05-05T10:07:42.462Z,8.60
2023-05-05T10:10:18.525Z,8.70
2023-05-05T10:12:48.366Z,8.30
2023-05-05T10:15:17.342Z,9.10
2023-05-05T10:20:21.564Z,10.30
2023-05-05T10:22:53.360Z,9.70
2023-05-05T10:25:31.387Z,11.60
2023-05-05T10:28:01.993Z,12.00
2023-05-05T10:30:32.437Z,8.20
2023-05-05T10:33:27.260Z,8.20
2023-05-05T10:35:57.534Z,7.50
2023-05-05T10:38:31.303Z,8.40
2023-05-05T10:41:03.512Z,8.20
2023-05-05T10:43:35.704Z,8.30
2023-05-05T10:46:07.113Z,8.30
2023-05-05T10:49:00.716Z,9.50
2023-05-05T10:51:58.503Z,10.10
2023-05-05T10:54:46.709Z,6.90
2023-05-05T10:57:20.248Z,8.00
2023-05-05T10:59:49.904Z,8.60
2023-05-05T11:02:27.071Z,6.90
2023-05-05T11:05:22.999Z,7.80
2023-05-05T11:07:53.840Z,7.80
2023-05-05T11:10:23.949Z,8.90
2023-05-05T11:12:52.923Z,8.10
2023-05-05T11:15:24.813Z,7.70
2023-05-05T11:17:57.716Z,8.60
2023-05-05T11:20:40.724Z,8.80
2023-05-05T11:23:09.697Z,9.20
2023-05-05T11:25:41.244Z,9.00
2023-05-05T11:28:16.934Z,10.50
2023-05-05T11:30:56.315Z,7.00
2023-05-05T11:33:30.506Z,8.90
2023-05-05T11:36:06.082Z,8.60
2023-05-05T11:39:12.472Z,8.30
2023-05-05T11:42:10.921Z,8.00
2023-05-05T11:44:39.959Z,8.10
2023-05-05T11:47:10.569Z,7.30
2023-05-05T11:49:40.259Z,8.40
2023-05-05T11:52:14.012Z,7.70
2023-05-05T11:54:50.885Z,8.90
2023-05-05T11:57:29.088Z,7.40
2023-05-05T12:00:08.618Z,7.10
2023-05-05T12:02:37.732Z,8.40
2023-05-05T12:05:07.641Z,8.40
2023-05-05T12:07:36.615Z,8.60
2023-05-05T12:10:05.956Z,7.60
2023-05-05T12:12:39.750Z,8.10
2023-05-05T12:15:10.056Z,9.30
2023-05-05T12:17:45.332Z,7.10
2023-05-05T12:20:14.276Z,7.30
2023-05-05T12:22:44.283Z,8.20
2023-05-05T12:25:12.984Z,7.70
2023-05-05T12:27:52.629Z,8.20
2023-05-05T12:30:22.769Z,7.20
2023-05-05T12:32:51.771Z,9.80
2023-05-05T12:35:22.439Z,6.80
2023-05-05T12:37:52.183Z,10.50
2023-05-05T12:40:46.865Z,8.40
2023-05-05T12:43:45.797Z,7.70
2023-05-05T12:46:15.259Z,8.00
2023-05-05T12:48:47.943Z,9.20
2023-05-05T12:51:19.716Z,7.90
2023-05-05T12:53:50.366Z,8.60
2023-05-05T12:56:31.728Z,7.60
2023-05-05T12:59:02.729Z,8.00
2023-05-05T13:01:34.784Z,7.60
2023-05-05T13:04:08.737Z,9.70
2023-05-05T13:06:48.288Z,7.50
2023-05-05T13:09:27.742Z,7.70
2023-05-05T13:11:57.480Z,7.00
2023-05-05T13:14:26.972Z,5.90
2023-05-05T13:16:56.226Z,7.00
2023-05-05T13:19:25.746Z,8.40
2023-05-05T13:21:58.616Z,9.80
2023-05-05T13:24:42.228Z,7.20
2023-05-05T13:27:15.963Z,6.90
2023-05-05T13:29:45.898Z,6.80
2023-05-05T13:32:14.888Z,9.20
2023-05-05T13:34:44.519Z,10.00
2023-05-05T13:37:14.286Z,7.40
2023-05-05T13:39:43.902Z,6.00
2023-05-05T13:42:12.686Z,6.60
2023-05-05T13:44:41.683Z,7.50
2023-05-05T13:47:10.687Z,6.70
2023-05-05T13:49:40.168Z,7.80
2023-05-05T13:52:09.681Z,6.20
2023-05-05T13:54:38.657Z,9.30
2023-05-05T13:57:08.390Z,7.00
2023-05-05T13:59:37.691Z,7.70
2023-05-05T14:02:06.782Z,7.00
2023-05-05T14:04:35.800Z,7.60
2023-05-05T14:07:05.501Z,7.60
2023-05-05T14:09:34.596Z,9.70
2023-05-05T14:12:04.170Z,8.40
2023-05-05T14:14:32.781Z,7.00
2023-05-05T14:17:02.797Z,7.20
2023-05-05T14:19:31.975Z,7.50
2023-05-05T14:22:00.784Z,8.50
2023-05-05T14:24:29.551Z,8.10
2023-05-05T14:26:58.865Z,8.60
2023-05-05T14:29:27.747Z,7.70
2023-05-05T14:31:56.570Z,7.80
2023-05-05T14:34:26.229Z,7.40
2023-05-05T14:36:55.015Z,7.20
2023-05-05T14:39:24.651Z,7.70
2023-05-05T14:41:53.839Z,6.80
2023-05-05T14:44:23.026Z,7.50
2023-05-05T14:46:53.152Z,7.30
2023-05-05T14:49:22.038Z,9.20
2023-05-05T14:51:51.229Z,9.40
2023-05-05T14:54:27.344Z,6.80
2023-05-05T14:56:59.292Z,7.90
2023-05-05T14:59:28.140Z,7.00
2023-05-05T15:01:57.486Z,6.60
2023-05-05T15:04:26.546Z,7.40
2023-05-05T15:06:55.847Z,6.00
2023-05-05T15:09:24.936Z,8.80
2023-05-05T15:11:53.726Z,8.50
2023-05-05T15:14:22.853Z,7.50
2023-05-05T15:16:52.238Z,7.70
2023-05-05T15:19:21.227Z,8.60
2023-05-05T15:21:53.681Z,6.60
2023-05-05T15:24:22.933Z,7.30
2023-05-05T15:26:51.906Z,7.50
2023-05-05T15:29:22.418Z,7.60
2023-05-05T15:31:52.724Z,7.10
2023-05-05T15:34:22.644Z,8.30
2023-05-05T15:36:52.062Z,7.30
2023-05-05T15:39:21.571Z,7.50
2023-05-05T15:41:50.333Z,11.30
2023-05-05T15:44:19.496Z,7.80
2023-05-05T15:46:50.516Z,7.50
2023-05-05T15:49:19.361Z,6.80
2023-05-05T15:51:49.100Z,6.40
2023-05-05T15:54:18.304Z,9.60
2023-05-05T15:56:48.828Z,8.70
2023-05-05T15:59:19.186Z,8.90
2023-05-05T16:01:49.646Z,8.40
2023-05-05T16:04:18.647Z,6.50
2023-05-05T16:06:48.468Z,8.50
2023-05-05T16:09:18.984Z,6.20
2023-05-05T16:11:48.091Z,6.70
2023-05-05T16:14:18.066Z,7.50
2023-05-05T16:16:47.651Z,7.70
2023-05-05T16:19:17.476Z,8.70
2023-05-05T16:22:08.641Z,8.30
2023-05-05T16:24:39.580Z,6.20
2023-05-05T16:27:09.010Z,8.50
2023-05-05T16:29:37.879Z,7.80
2023-05-05T16:32:07.074Z,9.80
2023-05-05T16:34:36.263Z,8.20
2023-05-05T16:37:06.841Z,9.80
2023-05-05T16:39:45.986Z,9.40
2023-05-05T16:42:16.758Z,6.20
2023-05-05T16:44:47.284Z,6.90
2023-05-05T16:47:18.040Z,6.80
2023-05-05T16:49:47.720Z,8.30
2023-05-05T16:52:17.034Z,7.80
2023-05-05T16:54:47.360Z,8.70
2023-05-05T16:57:16.457Z,6.40
2023-05-05T16:59:45.349Z,8.10
2023-05-05T17:02:14.729Z,6.00
2023-05-05T17:04:44.353Z,5.90
2023-05-05T17:07:14.064Z,6.20
2023-05-05T17:09:43.878Z,6.50
2023-05-05T17:12:13.574Z,6.70
2023-05-05T17:14:48.416Z,7.50
2023-05-05T17:17:17.914Z,9.40
2023-05-05T17:19:47.217Z,8.70
2023-05-05T17:22:17.236Z,7.00
2023-05-05T17:24:57.783Z,7.80
2023-05-05T17:27:27.607Z,6.30
2023-05-05T17:29:57.218Z,7.30
2023-05-05T17:32:27.083Z,9.10
2023-05-05T17:34:57.504Z,8.20
2023-05-05T17:37:29.748Z,8.80
2023-05-05T17:40:00.334Z,8.70
2023-05-05T17:42:33.625Z,10.30
2023-05-05T17:45:04.519Z,8.80
2023-05-05T17:47:34.958Z,8.90
2023-05-05T17:50:04.530Z,7.00
2023-05-05T17:52:34.955Z,7.30
2023-05-05T17:55:07.128Z,7.40
2023-05-05T17:57:38.977Z,7.40
2023-05-05T18:00:10.790Z,10.50
2023-05-05T18:02:42.752Z,8.00
2023-05-05T18:05:13.617Z,10.30
2023-05-05T18:07:47.854Z,8.00
2023-05-05T18:10:17.326Z,11.40
2023-05-05T18:12:46.498Z,9.90
2023-05-05T18:15:16.733Z,12.20
2023-05-05T18:17:49.173Z,7.80
2023-05-05T18:20:24.582Z,9.50
2023-05-05T18:22:58.508Z,9.10
2023-05-05T18:25:30.192Z,10.60
2023-05-05T18:28:00.719Z,10.70
2023-05-05T18:30:31.045Z,11.10
2023-05-05T18:33:01.283Z,10.50
2023-05-05T18:35:30.217Z,11.90
2023-05-05T18:37:59.315Z,9.80
2023-05-05T18:40:28.610Z,8.50
2023-05-05T18:42:58.065Z,8.60
2023-05-05T18:45:27.879Z,8.10
2023-05-05T18:47:57.462Z,9.70
2023-05-05T18:50:27.349Z,12.10
2023-05-05T18:52:57.351Z,11.70
2023-05-05T18:55:26.671Z,10.90
2023-05-05T18:57:55.781Z,10.80
2023-05-05T19:00:24.988Z,11.20
2023-05-05T19:02:54.740Z,10.40
2023-05-05T19:05:24.717Z,12.40
2023-05-05T19:07:53.797Z,10.30
2023-05-05T19:10:24.475Z,10.30
2023-05-05T19:12:53.573Z,12.50
2023-05-05T19:15:23.158Z,12.90
2023-05-05T19:17:53.554Z,10.10
2023-05-05T19:20:23.359Z,14.10
2023-05-05T19:22:53.252Z,11.20
2023-05-05T19:25:22.568Z,13.50
2023-05-05T19:27:51.363Z,11.10
2023-05-05T19:30:22.956Z,10.80
2023-05-05T19:32:52.326Z,12.20
2023-05-05T19:35:23.065Z,15.30
2023-05-05T19:37:52.154Z,11.00
2023-05-05T19:40:21.235Z,11.40
2023-05-05T19:42:50.755Z,12.60
2023-05-05T19:45:20.549Z,11.30
2023-05-05T19:47:50.797Z,11.70
2023-05-05T19:50:22.219Z,14.20
2023-05-05T19:52:51.125Z,14.40
2023-05-05T19:55:21.259Z,14.30
2023-05-05T19:57:50.039Z,15.30
2023-05-05T20:00:21.295Z,14.80
2023-05-05T20:02:50.102Z,10.50
2023-05-05T20:05:19.259Z,10.20
2023-05-05T20:07:48.256Z,12.50
2023-05-05T20:10:18.894Z,11.80
2023-05-05T20:12:51.381Z,14.90
2023-05-05T20:15:22.561Z,11.40
2023-05-05T20:17:52.462Z,12.10
2023-05-05T20:20:23.860Z,12.70
2023-05-05T20:22:53.487Z,11.20
2023-05-05T20:25:22.503Z,11.70
2023-05-05T20:27:54.511Z,10.80
2023-05-05T20:30:25.105Z,12.60
2023-05-05T20:32:54.945Z,10.30
2023-05-05T20:35:24.686Z,10.80
2023-05-05T20:37:53.355Z,11.80
2023-05-05T20:40:22.285Z,11.70
2023-05-05T20:42:51.361Z,15.00
2023-05-05T20:45:20.161Z,11.20
2023-05-05T20:47:49.151Z,9.20
2023-05-05T20:50:21.021Z,12.70
2023-05-05T20:52:50.086Z,12.40
2023-05-05T20:55:18.906Z,10.60
2023-05-05T20:57:48.799Z,12.90
2023-05-05T21:00:20.949Z,13.10
2023-05-05T21:02:50.876Z,10.30
2023-05-05T21:05:20.168Z,10.20
2023-05-05T21:07:49.177Z,10.60
2023-05-05T21:10:18.368Z,12.90
2023-05-05T21:12:47.925Z,10.80
2023-05-05T21:15:17.177Z,11.50
2023-05-05T21:17:46.092Z,11.60
2023-05-05T21:20:16.304Z,12.10
2023-05-05T21:22:46.304Z,13.80
2023-05-05T21:25:19.500Z,10.10
2023-05-05T21:27:48.951Z,12.20
2023-05-05T21:30:18.213Z,13.20
2023-05-05T21:32:47.135Z,9.70
2023-05-05T21:35:16.311Z,11.20
2023-05-05T21:37:45.604Z,11.50
2023-05-05T21:40:16.577Z,10.50
2023-05-05T21:42:45.311Z,10.70
2023-05-05T21:45:14.624Z,12.90
2023-05-05T21:47:43.782Z,12.50
2023-05-05T21:50:12.815Z,12.70
2023-05-05T21:52:42.045Z,11.10
2023-05-05T21:55:11.601Z,12.50
2023-05-05T21:57:40.427Z,10.70
2023-05-05T22:00:10.257Z,11.20
2023-05-05T22:02:46.465Z,12.20
2023-05-05T22:05:15.689Z,9.30
2023-05-05T22:07:44.455Z,11.00
2023-05-05T22:10:13.132Z,10.80
2023-05-05T22:12:41.987Z,12.10
2023-05-05T22:15:11.705Z,10.40
2023-05-05T22:17:40.637Z,11.50
2023-05-05T22:20:10.822Z,10.90
2023-05-05T22:22:39.934Z,10.40
2023-05-05T22:25:09.510Z,11.70
2023-05-05T22:27:39.258Z,12.00
2023-05-05T22:30:09.519Z,11.80
2023-05-05T22:32:39.266Z,10.90
2023-05-05T22:35:09.604Z,11.90
2023-05-05T22:37:38.399Z,12.00
2023-05-05T22:40:10.517Z,10.90
2023-05-05T22:42:39.480Z,11.50
2023-05-05T22:45:10.305Z,12.90
2023-05-05T22:47:39.558Z,11.00
2023-05-05T22:50:10.061Z,10.50
2023-05-05T22:52:39.234Z,11.20
2023-05-05T22:55:09.347Z,11.80
2023-05-05T22:57:38.652Z,8.80
2023-05-05T23:00:11.702Z,10.40
2023-05-05T23:02:40.691Z,10.50
2023-05-05T23:05:10.338Z,9.70
2023-05-05T23:07:39.450Z,12.10
2023-05-05T23:10:09.166Z,10.10
2023-05-05T23:12:38.755Z,11.10
2023-05-05T23:15:08.556Z,10.20
2023-05-05T23:17:37.524Z,11.60
2023-05-05T23:20:09.843Z,10.50
2023-05-05T23:22:38.416Z,12.30
2023-05-05T23:25:08.543Z,11.30
2023-05-05T23:27:40.562Z,12.50
2023-05-05T23:30:09.901Z,9.70
2023-05-05T23:32:38.602Z,12.70
2023-05-05T23:35:08.159Z,10.40
2023-05-05T23:37:37.086Z,10.30
2023-05-05T23:40:07.239Z,10.00
2023-05-05T23:42:36.405Z,9.10
2023-05-05T23:45:06.264Z,8.30
2023-05-05T23:47:35.289Z,10.90
2023-05-05T23:50:04.678Z,13.10
2023-05-05T23:52:33.599Z,12.60
2023-05-05T23:55:02.476Z,11.20
2023-05-05T23:57:31.373Z,11.50
